Home > Products > Valid Products > TAF

000
FTUS45 KBYZ 010520
TAFMLS
TAF
KMLS 010520Z 0106/0206 VRB06KT P6SM SKC
     FM011500 27009KT P6SM SKC
     FM011800 27009G18KT P6SM SKC
     FM012200 29013G22KT P6SM FEW100
     FM020200 VRB06KT P6SM SKC=



000
FTUS45 KBYZ 010520
TAFLVM
TAF
KLVM 010520Z 0106/0206 VRB06KT P6SM SKC
     FM011200 25010KT P6SM SKC
     FM011800 27016G23KT P6SM SKC
     FM012100 29011KT P6SM SKC
     FM020100 VRB06KT P6SM SKC=



000
FTUS45 KBYZ 010520
TAFSHR
TAF
KSHR 010520Z 0106/0206 VRB06KT P6SM SKC
     FM011000 30009KT P6SM SKC=



000
FTUS45 KBYZ 010520
TAFMLS
TAF
KMLS 010520Z 0106/0206 VRB06KT P6SM SKC
     FM011500 27009KT P6SM SKC
     FM011800 27009G18KT P6SM SKC
     FM012200 29013G22KT P6SM FEW100
     FM020200 VRB06KT P6SM SKC=



000
FTUS45 KBYZ 010520
TAFSHR
TAF
KSHR 010520Z 0106/0206 VRB06KT P6SM SKC
     FM011000 30009KT P6SM SKC=



000
FTUS45 KBYZ 010520
TAFMLS
TAF
KMLS 010520Z 0106/0206 VRB06KT P6SM SKC
     FM011500 27009KT P6SM SKC
     FM011800 27009G18KT P6SM SKC
     FM012200 29013G22KT P6SM FEW100
     FM020200 VRB06KT P6SM SKC=



000
FTUS45 KBYZ 010520
TAFBIL
TAF
KBIL 010520Z 0106/0206 VRB06KT P6SM SKC
     FM010800 25009KT P6SM SKC
     FM011800 29011KT P6SM FEW110
     FM020200 VRB05KT P6SM FEW100=



000
FTUS45 KBYZ 010520
TAFBIL
TAF
KBIL 010520Z 0106/0206 VRB06KT P6SM SKC
     FM010800 25009KT P6SM SKC
     FM011800 29011KT P6SM FEW110
     FM020200 VRB05KT P6SM FEW100=



000
FTUS45 KBYZ 010520
TAFMLS
TAF
KMLS 010520Z 0106/0206 VRB06KT P6SM SKC
     FM011500 27009KT P6SM SKC
     FM011800 27009G18KT P6SM SKC
     FM012200 29013G22KT P6SM FEW100
     FM020200 VRB06KT P6SM SKC=



000
FTUS45 KBYZ 010520
TAFLVM
TAF
KLVM 010520Z 0106/0206 VRB06KT P6SM SKC
     FM011200 25010KT P6SM SKC
     FM011800 27016G23KT P6SM SKC
     FM012100 29011KT P6SM SKC
     FM020100 VRB06KT P6SM SKC=



000
FTUS45 KBYZ 010520
TAFSHR
TAF
KSHR 010520Z 0106/0206 VRB06KT P6SM SKC
     FM011000 30009KT P6SM SKC=



000
FTUS45 KBYZ 010520
TAFLVM
TAF
KLVM 010520Z 0106/0206 VRB06KT P6SM SKC
     FM011200 25010KT P6SM SKC
     FM011800 27016G23KT P6SM SKC
     FM012100 29011KT P6SM SKC
     FM020100 VRB06KT P6SM SKC=



000
FTUS45 KBYZ 010520
TAFLVM
TAF
KLVM 010520Z 0106/0206 VRB06KT P6SM SKC
     FM011200 25010KT P6SM SKC
     FM011800 27016G23KT P6SM SKC
     FM012100 29011KT P6SM SKC
     FM020100 VRB06KT P6SM SKC=



000
FTUS45 KBYZ 010520
TAFSHR
TAF
KSHR 010520Z 0106/0206 VRB06KT P6SM SKC
     FM011000 30009KT P6SM SKC=



000
FTUS45 KBYZ 010520
TAFBIL
TAF
KBIL 010520Z 0106/0206 VRB06KT P6SM SKC
     FM010800 25009KT P6SM SKC
     FM011800 29011KT P6SM FEW110
     FM020200 VRB05KT P6SM FEW100=



000
FTUS45 KBYZ 010520
TAFBIL
TAF
KBIL 010520Z 0106/0206 VRB06KT P6SM SKC
     FM010800 25009KT P6SM SKC
     FM011800 29011KT P6SM FEW110
     FM020200 VRB05KT P6SM FEW100=



000
FTUS45 KBYZ 312340
TAFSHR
TAF
KSHR 312340Z 0100/0124 VRB03KT P6SM SKC=



000
FTUS45 KBYZ 312340
TAFBIL
TAF
KBIL 312340Z 0100/0124 VRB04KT P6SM FEW070 SCT200
     FM010200 VRB04KT P6SM SKC
     FM012000 22008G14KT P6SM FEW070=



000
FTUS45 KBYZ 312340
TAFMLS
TAF
KMLS 312340Z 0100/0124 24011KT P6SM FEW120
     FM010300 VRB03KT P6SM SKC
     FM012100 27006G14KT P6SM SKC=



000
FTUS45 KBYZ 312340
TAFLVM
TAF
KLVM 312340Z 0100/0124 30015KT P6SM SKC
     FM011200 24007KT P6SM SKC
     FM011900 27016G23KT P6SM SKC=



000
FTUS45 KBYZ 312340
TAFSHR
TAF
KSHR 312340Z 0100/0124 VRB03KT P6SM SKC=



000
FTUS45 KBYZ 312340
TAFLVM
TAF
KLVM 312340Z 0100/0124 30015KT P6SM SKC
     FM011200 24007KT P6SM SKC
     FM011900 27016G23KT P6SM SKC=



000
FTUS45 KBYZ 312340
TAFMLS
TAF
KMLS 312340Z 0100/0124 24011KT P6SM FEW120
     FM010300 VRB03KT P6SM SKC
     FM012100 27006G14KT P6SM SKC=



000
FTUS45 KBYZ 312340
TAFBIL
TAF
KBIL 312340Z 0100/0124 VRB04KT P6SM FEW070 SCT200
     FM010200 VRB04KT P6SM SKC
     FM012000 22008G14KT P6SM FEW070=



000
FTUS45 KBYZ 312211 AAA
TAFLVM
TAF AMD
KLVM 312211Z 3122/0118 26016G23KT P6SM SKC
     FM010200 18009KT P6SM FEW090=



000
FTUS45 KBYZ 312211 AAA
TAFLVM
TAF AMD
KLVM 312211Z 3122/0118 26016G23KT P6SM SKC
     FM010200 18009KT P6SM FEW090=



000
FTUS45 KBYZ 311720
TAFSHR
TAF
KSHR 311720Z 3118/0118 VRB06KT P6SM SKC=



000
FTUS45 KBYZ 311720
TAFLVM
TAF
KLVM 311720Z 3118/0118 VRB05KT P6SM SKC
     FM312000 29011G18KT P6SM FEW110
     FM010200 18009KT P6SM FEW090=



000
FTUS45 KBYZ 311720
TAFMLS
TAF
KMLS 311720Z 3118/0118 15008KT P6SM SKC
     FM011500 27011KT P6SM SKC=



000
FTUS45 KBYZ 311720
TAFBIL
TAF
KBIL 311720Z 3118/0118 28011KT P6SM SKC=



000
FTUS45 KBYZ 311720
TAFBIL
TAF
KBIL 311720Z 3118/0118 28011KT P6SM SKC=



000
FTUS45 KBYZ 311720
TAFLVM
TAF
KLVM 311720Z 3118/0118 VRB05KT P6SM SKC
     FM312000 29011G18KT P6SM FEW110
     FM010200 18009KT P6SM FEW090=



000
FTUS45 KBYZ 311720
TAFMLS
TAF
KMLS 311720Z 3118/0118 15008KT P6SM SKC
     FM011500 27011KT P6SM SKC=



000
FTUS45 KBYZ 311720
TAFSHR
TAF
KSHR 311720Z 3118/0118 VRB06KT P6SM SKC=



000
FTUS45 KBYZ 311720
TAFMLS
TAF
KMLS 311720Z 3118/0118 15008KT P6SM SKC
     FM011500 27011KT P6SM SKC=



000
FTUS45 KBYZ 311720
TAFSHR
TAF
KSHR 311720Z 3118/0118 VRB06KT P6SM SKC=



000
FTUS45 KBYZ 311720
TAFSHR
TAF
KSHR 311720Z 3118/0118 VRB06KT P6SM SKC=



000
FTUS45 KBYZ 311720
TAFBIL
TAF
KBIL 311720Z 3118/0118 28011KT P6SM SKC=



000
FTUS45 KBYZ 311720
TAFBIL
TAF
KBIL 311720Z 3118/0118 28011KT P6SM SKC=



000
FTUS45 KBYZ 311720
TAFMLS
TAF
KMLS 311720Z 3118/0118 15008KT P6SM SKC
     FM011500 27011KT P6SM SKC=



000
FTUS45 KBYZ 311120
TAFSHR
TAF
KSHR 311120Z 3112/0112 VRB05KT P6SM SKC
     FM010300 31006KT P6SM FEW100=



000
FTUS45 KBYZ 311120
TAFBIL
TAF
KBIL 311120Z 3112/0112 VRB06KT P6SM SKC=



000
FTUS45 KBYZ 311120
TAFLVM
TAF
KLVM 311120Z 3112/0112 VRB05KT P6SM SKC
     FM312000 29011G18KT P6SM FEW110
     FM010200 VRB06KT P6SM FEW090=



000
FTUS45 KBYZ 311120
TAFLVM
TAF
KLVM 311120Z 3112/0112 VRB05KT P6SM SKC
     FM312000 29011G18KT P6SM FEW110
     FM010200 VRB06KT P6SM FEW090=



000
FTUS45 KBYZ 311120
TAFMLS
TAF
KMLS 311120Z 3112/0112 VRB06KT P6SM FEW090
     FM311600 15008KT P6SM FEW110
     FM312200 VRB06KT P6SM FEW090=



000
FTUS45 KBYZ 311120
TAFMLS
TAF
KMLS 311120Z 3112/0112 VRB06KT P6SM FEW090
     FM311600 15008KT P6SM FEW110
     FM312200 VRB06KT P6SM FEW090=



000
FTUS45 KBYZ 311120
TAFBIL
TAF
KBIL 311120Z 3112/0112 VRB06KT P6SM SKC=



000
FTUS45 KBYZ 311120
TAFSHR
TAF
KSHR 311120Z 3112/0112 VRB05KT P6SM SKC
     FM010300 31006KT P6SM FEW100=



000
FTUS45 KBYZ 310520
TAFSHR
TAF
KSHR 310520Z 3106/0106 VRB05KT P6SM SKC
     FM010300 31006KT P6SM FEW100=



000
FTUS45 KBYZ 310520
TAFLVM
TAF
KLVM 310520Z 3106/0106 VRB05KT P6SM SKC
     FM312000 29011G18KT P6SM FEW110
     FM010200 VRB06KT P6SM FEW090=



000
FTUS45 KBYZ 310520
TAFSHR
TAF
KSHR 310520Z 3106/0106 VRB05KT P6SM SKC
     FM010300 31006KT P6SM FEW100=



000
FTUS45 KBYZ 310520
TAFLVM
TAF
KLVM 310520Z 3106/0106 VRB05KT P6SM SKC
     FM312000 29011G18KT P6SM FEW110
     FM010200 VRB06KT P6SM FEW090=



000
FTUS45 KBYZ 310520
TAFLVM
TAF
KLVM 310520Z 3106/0106 VRB05KT P6SM SKC
     FM312000 29011G18KT P6SM FEW110
     FM010200 VRB06KT P6SM FEW090=



000
FTUS45 KBYZ 310520
TAFLVM
TAF
KLVM 310520Z 3106/0106 VRB05KT P6SM SKC
     FM312000 29011G18KT P6SM FEW110
     FM010200 VRB06KT P6SM FEW090=



000
FTUS45 KBYZ 310520
TAFSHR
TAF
KSHR 310520Z 3106/0106 VRB05KT P6SM SKC
     FM010300 31006KT P6SM FEW100=



000
FTUS45 KBYZ 310520
TAFBIL
TAF
KBIL 310520Z 3106/0106 VRB06KT P6SM SKC
     FM311300 24009KT P6SM SKC
     FM312000 VRB06KT P6SM FEW090=



000
FTUS45 KBYZ 310520
TAFSHR
TAF
KSHR 310520Z 3106/0106 VRB05KT P6SM SKC
     FM010300 31006KT P6SM FEW100=



000
FTUS45 KBYZ 310520
TAFMLS
TAF
KMLS 310520Z 3106/0106 04006KT P6SM SKC
     FM310900 VRB06KT P6SM FEW090
     FM311600 15008KT P6SM FEW110
     FM312200 VRB06KT P6SM FEW090=



000
FTUS45 KBYZ 310520
TAFMLS
TAF
KMLS 310520Z 3106/0106 04006KT P6SM SKC
     FM310900 VRB06KT P6SM FEW090
     FM311600 15008KT P6SM FEW110
     FM312200 VRB06KT P6SM FEW090=



000
FTUS45 KBYZ 310520
TAFBIL
TAF
KBIL 310520Z 3106/0106 VRB06KT P6SM SKC
     FM311300 24009KT P6SM SKC
     FM312000 VRB06KT P6SM FEW090=



000
FTUS45 KBYZ 310520
TAFBIL
TAF
KBIL 310520Z 3106/0106 VRB06KT P6SM SKC
     FM311300 24009KT P6SM SKC
     FM312000 VRB06KT P6SM FEW090=



000
FTUS45 KBYZ 310520
TAFMLS
TAF
KMLS 310520Z 3106/0106 04006KT P6SM SKC
     FM310900 VRB06KT P6SM FEW090
     FM311600 15008KT P6SM FEW110
     FM312200 VRB06KT P6SM FEW090=



000
FTUS45 KBYZ 310520
TAFMLS
TAF
KMLS 310520Z 3106/0106 04006KT P6SM SKC
     FM310900 VRB06KT P6SM FEW090
     FM311600 15008KT P6SM FEW110
     FM312200 VRB06KT P6SM FEW090=



000
FTUS45 KBYZ 310520
TAFBIL
TAF
KBIL 310520Z 3106/0106 VRB06KT P6SM SKC
     FM311300 24009KT P6SM SKC
     FM312000 VRB06KT P6SM FEW090=



000
FTUS45 KBYZ 310040 AAA
TAFMLS
TAF AMD
KMLS 310040Z 3101/3124 31013G18KT P6SM SKC
     FM310200 04006KT P6SM SKC
     FM312000 27008KT P6SM FEW110=



000
FTUS45 KBYZ 310040 AAA
TAFMLS
TAF AMD
KMLS 310040Z 3101/3124 31013G18KT P6SM SKC
     FM310200 04006KT P6SM SKC
     FM312000 27008KT P6SM FEW110=



000
FTUS45 KBYZ 310040 AAA
TAFMLS
TAF AMD
KMLS 310040Z 3101/3124 31013G18KT P6SM SKC
     FM310200 04006KT P6SM SKC
     FM312000 27008KT P6SM FEW110=



000
FTUS45 KBYZ 302320
TAFLVM
TAF
KLVM 302320Z 3100/3124 27007G17KT P6SM FEW110
     FM310200 VRB05KT P6SM SKC
     FM312000 27011G18KT P6SM FEW110=



000
FTUS45 KBYZ 302320
TAFBIL
TAF
KBIL 302320Z 3100/3124 10006KT P6SM FEW090
     FM310200 03008KT P6SM SKC
     FM311800 28010KT P6SM FEW090=



000
FTUS45 KBYZ 302320
TAFSHR
TAF
KSHR 302320Z 3100/3124 VRB05KT P6SM SKC=



000
FTUS45 KBYZ 302320
TAFLVM
TAF
KLVM 302320Z 3100/3124 27007G17KT P6SM FEW110
     FM310200 VRB05KT P6SM SKC
     FM312000 27011G18KT P6SM FEW110=



000
FTUS45 KBYZ 302320
TAFBIL
TAF
KBIL 302320Z 3100/3124 10006KT P6SM FEW090
     FM310200 03008KT P6SM SKC
     FM311800 28010KT P6SM FEW090=



000
FTUS45 KBYZ 302320
TAFMLS
TAF
KMLS 302320Z 3100/3124 36007KT P6SM SCT110
     FM310200 04006KT P6SM SKC
     FM312000 27008KT P6SM FEW110=



000
FTUS45 KBYZ 302320
TAFMLS
TAF
KMLS 302320Z 3100/3124 36007KT P6SM SCT110
     FM310200 04006KT P6SM SKC
     FM312000 27008KT P6SM FEW110=



000
FTUS45 KBYZ 302320
TAFSHR
TAF
KSHR 302320Z 3100/3124 VRB05KT P6SM SKC=



000
FTUS45 KBYZ 302235 AAA
TAFBIL
TAF AMD
KBIL 302235Z 3023/3118 20007KT P6SM FEW090
     FM310200 03009KT P6SM SKC=



000
FTUS45 KBYZ 302235 AAA
TAFBIL
TAF AMD
KBIL 302235Z 3023/3118 20007KT P6SM FEW090
     FM310200 03009KT P6SM SKC=



000
FTUS45 KBYZ 301733
TAFSHR
TAF
KSHR 301733Z 3018/3118 VRB05KT P6SM FEW100=



000
FTUS45 KBYZ 301733
TAFBIL
TAF
KBIL 301733Z 3018/3118 27014KT P6SM SKC
     FM310200 03009KT P6SM SKC=



000
FTUS45 KBYZ 301733
TAFLVM
TAF
KLVM 301733Z 3018/3118 28015KT P6SM FEW100
     FM310300 08008KT P6SM SKC=



000
FTUS45 KBYZ 301733
TAFMLS
TAF
KMLS 301733Z 3018/3118 28014KT P6SM SKC
     FM310200 01008KT P6SM SKC=



000
FTUS45 KBYZ 301733
TAFLVM
TAF
KLVM 301733Z 3018/3118 28015KT P6SM FEW100
     FM310300 08008KT P6SM SKC=



000
FTUS45 KBYZ 301733
TAFMLS
TAF
KMLS 301733Z 3018/3118 28014KT P6SM SKC
     FM310200 01008KT P6SM SKC=



000
FTUS45 KBYZ 301733
TAFSHR
TAF
KSHR 301733Z 3018/3118 VRB05KT P6SM FEW100=



000
FTUS45 KBYZ 301733
TAFBIL
TAF
KBIL 301733Z 3018/3118 27014KT P6SM SKC
     FM310200 03009KT P6SM SKC=



000
FTUS45 KBYZ 301120
TAFLVM
TAF
KLVM 301120Z 3012/3112 31008KT P6SM SKC
     FM301800 27008KT P6SM FEW120=



000
FTUS45 KBYZ 301120
TAFMLS
TAF
KMLS 301120Z 3012/3112 16006KT P6SM SKC
     FM301500 27006KT P6SM SKC
     FM301800 32008KT P6SM FEW100
     FM310200 03008KT P6SM FEW100=



000
FTUS45 KBYZ 301120
TAFMLS
TAF
KMLS 301120Z 3012/3112 16006KT P6SM SKC
     FM301500 27006KT P6SM SKC
     FM301800 32008KT P6SM FEW100
     FM310200 03008KT P6SM FEW100=



000
FTUS45 KBYZ 301120
TAFLVM
TAF
KLVM 301120Z 3012/3112 31008KT P6SM SKC
     FM301800 27008KT P6SM FEW120=



000
FTUS45 KBYZ 301120
TAFSHR
TAF
KSHR 301120Z 3012/3112 VRB03KT P6SM SKC
     FM301600 33006KT P6SM FEW120
     FM310200 VRB04KT P6SM FEW120=



000
FTUS45 KBYZ 301120
TAFBIL
TAF
KBIL 301120Z 3012/3112 22008KT P6SM SKC
     FM302000 32008KT P6SM FEW150
     FM310000 03008KT P6SM FEW150=



000
FTUS45 KBYZ 301120
TAFBIL
TAF
KBIL 301120Z 3012/3112 22008KT P6SM SKC
     FM302000 32008KT P6SM FEW150
     FM310000 03008KT P6SM FEW150=



000
FTUS45 KBYZ 301120
TAFSHR
TAF
KSHR 301120Z 3012/3112 VRB03KT P6SM SKC
     FM301600 33006KT P6SM FEW120
     FM310200 VRB04KT P6SM FEW120=



000
FTUS45 KBYZ 300520
TAFMLS
TAF
KMLS 300520Z 3006/3106 32006KT P6SM SKC
     FM300900 25006KT P6SM FEW100
     FM302000 34008KT P6SM FEW100=



000
FTUS45 KBYZ 300520
TAFLVM
TAF
KLVM 300520Z 3006/3106 30008KT P6SM SKC
     FM302000 26008KT P6SM FEW120=



000
FTUS45 KBYZ 300520
TAFSHR
TAF
KSHR 300520Z 3006/3106 VRB03KT P6SM SKC
     FM301600 32006KT P6SM FEW120=



000
FTUS45 KBYZ 300520
TAFMLS
TAF
KMLS 300520Z 3006/3106 32006KT P6SM SKC
     FM300900 25006KT P6SM FEW100
     FM302000 34008KT P6SM FEW100=



000
FTUS45 KBYZ 300520
TAFSHR
TAF
KSHR 300520Z 3006/3106 VRB03KT P6SM SKC
     FM301600 32006KT P6SM FEW120=



000
FTUS45 KBYZ 300520
TAFBIL
TAF
KBIL 300520Z 3006/3106 23005KT P6SM SKC
     FM302000 34006KT P6SM FEW150=



000
FTUS45 KBYZ 300520
TAFMLS
TAF
KMLS 300520Z 3006/3106 32006KT P6SM SKC
     FM300900 25006KT P6SM FEW100
     FM302000 34008KT P6SM FEW100=



000
FTUS45 KBYZ 300520
TAFLVM
TAF
KLVM 300520Z 3006/3106 30008KT P6SM SKC
     FM302000 26008KT P6SM FEW120=



000
FTUS45 KBYZ 300520
TAFLVM
TAF
KLVM 300520Z 3006/3106 30008KT P6SM SKC
     FM302000 26008KT P6SM FEW120=



000
FTUS45 KBYZ 300520
TAFSHR
TAF
KSHR 300520Z 3006/3106 VRB03KT P6SM SKC
     FM301600 32006KT P6SM FEW120=



000
FTUS45 KBYZ 300520
TAFBIL
TAF
KBIL 300520Z 3006/3106 23005KT P6SM SKC
     FM302000 34006KT P6SM FEW150=



000
FTUS45 KBYZ 300520
TAFBIL
TAF
KBIL 300520Z 3006/3106 23005KT P6SM SKC
     FM302000 34006KT P6SM FEW150=



000
FTUS45 KBYZ 300520
TAFMLS
TAF
KMLS 300520Z 3006/3106 32006KT P6SM SKC
     FM300900 25006KT P6SM FEW100
     FM302000 34008KT P6SM FEW100=



000
FTUS45 KBYZ 300520
TAFSHR
TAF
KSHR 300520Z 3006/3106 VRB03KT P6SM SKC
     FM301600 32006KT P6SM FEW120=



000
FTUS45 KBYZ 300520
TAFLVM
TAF
KLVM 300520Z 3006/3106 30008KT P6SM SKC
     FM302000 26008KT P6SM FEW120=



000
FTUS45 KBYZ 292322
TAFBIL
TAF
KBIL 292322Z 3000/3024 24005KT P6SM FEW090
     FM302100 34006KT P6SM SKC=



000
FTUS45 KBYZ 292322
TAFSHR
TAF
KSHR 292322Z 3000/3024 VRB03KT P6SM SKC
     FM302000 08004KT P6SM SCT090=



000
FTUS45 KBYZ 292322
TAFMLS
TAF
KMLS 292322Z 3000/3024 29009KT P6SM SCT100
     FM300300 15006KT P6SM SKC
     FM301800 28010KT P6SM FEW100=



000
FTUS45 KBYZ 292322
TAFLVM
TAF
KLVM 292322Z 3000/3024 29011KT P6SM SKC=



000
FTUS45 KBYZ 292322
TAFLVM
TAF
KLVM 292322Z 3000/3024 29011KT P6SM SKC=



000
FTUS45 KBYZ 292322
TAFSHR
TAF
KSHR 292322Z 3000/3024 VRB03KT P6SM SKC
     FM302000 08004KT P6SM SCT090=



000
FTUS45 KBYZ 292322
TAFBIL
TAF
KBIL 292322Z 3000/3024 24005KT P6SM FEW090
     FM302100 34006KT P6SM SKC=



000
FTUS45 KBYZ 292322
TAFMLS
TAF
KMLS 292322Z 3000/3024 29009KT P6SM SCT100
     FM300300 15006KT P6SM SKC
     FM301800 28010KT P6SM FEW100=



000
FTUS45 KBYZ 292219 AAB
TAFBIL
TAF AMD
KBIL 292219Z 2922/3018 20011G17KT P6SM FEW090
     FM300500 24006KT P6SM SKC
     FM301500 33007KT P6SM FEW080=



000
FTUS45 KBYZ 292219 AAB
TAFBIL
TAF AMD
KBIL 292219Z 2922/3018 20011G17KT P6SM FEW090
     FM300500 24006KT P6SM SKC
     FM301500 33007KT P6SM FEW080=



000
FTUS45 KBYZ 292219 AAB
TAFBIL
TAF AMD
KBIL 292219Z 2922/3018 20011G17KT P6SM FEW090
     FM300500 24006KT P6SM SKC
     FM301500 33007KT P6SM FEW080=



000
FTUS45 KBYZ 291854 AAA
TAFBIL
TAF AMD
KBIL 291854Z 2919/3018 27015G25KT P6SM FEW120
     FM300500 24006KT P6SM SKC
     FM301500 33007KT P6SM FEW080=



000
FTUS45 KBYZ 291854 AAA
TAFBIL
TAF AMD
KBIL 291854Z 2919/3018 27015G25KT P6SM FEW120
     FM300500 24006KT P6SM SKC
     FM301500 33007KT P6SM FEW080=



000
FTUS45 KBYZ 291727
TAFMLS
TAF
KMLS 291727Z 2918/3018 29012G20KT P6SM FEW100
     FM300400 30008KT P6SM SKC=



000
FTUS45 KBYZ 291727
TAFLVM
TAF
KLVM 291727Z 2918/3018 26010G20KT P6SM FEW060
     FM300300 VRB06KT P6SM FEW150=



000
FTUS45 KBYZ 291727
TAFSHR
TAF
KSHR 291727Z 2918/3018 32006KT P6SM SCT150
     FM300300 VRB04KT P6SM SKC=



000
FTUS45 KBYZ 291727
TAFBIL
TAF
KBIL 291727Z 2918/3018 27010KT P6SM FEW120
     FM300500 24006KT P6SM SKC
     FM301500 33007KT P6SM FEW080=



000
FTUS45 KBYZ 291727
TAFLVM
TAF
KLVM 291727Z 2918/3018 26010G20KT P6SM FEW060
     FM300300 VRB06KT P6SM FEW150=



000
FTUS45 KBYZ 291727
TAFMLS
TAF
KMLS 291727Z 2918/3018 29012G20KT P6SM FEW100
     FM300400 30008KT P6SM SKC=



000
FTUS45 KBYZ 291727
TAFSHR
TAF
KSHR 291727Z 2918/3018 32006KT P6SM SCT150
     FM300300 VRB04KT P6SM SKC=



000
FTUS45 KBYZ 291727
TAFLVM
TAF
KLVM 291727Z 2918/3018 26010G20KT P6SM FEW060
     FM300300 VRB06KT P6SM FEW150=



000
FTUS45 KBYZ 291727
TAFBIL
TAF
KBIL 291727Z 2918/3018 27010KT P6SM FEW120
     FM300500 24006KT P6SM SKC
     FM301500 33007KT P6SM FEW080=



000
FTUS45 KBYZ 291727
TAFMLS
TAF
KMLS 291727Z 2918/3018 29012G20KT P6SM FEW100
     FM300400 30008KT P6SM SKC=



000
FTUS45 KBYZ 291727
TAFSHR
TAF
KSHR 291727Z 2918/3018 32006KT P6SM SCT150
     FM300300 VRB04KT P6SM SKC=



000
FTUS45 KBYZ 291727
TAFBIL
TAF
KBIL 291727Z 2918/3018 27010KT P6SM FEW120
     FM300500 24006KT P6SM SKC
     FM301500 33007KT P6SM FEW080=



000
FTUS45 KBYZ 291120
TAFLVM
TAF
KLVM 291120Z 2912/3012 31011KT P6SM SKC
     FM291700 27014KT P6SM SCT150
     FM300200 24008KT P6SM SKC=



000
FTUS45 KBYZ 291120
TAFLVM
TAF
KLVM 291120Z 2912/3012 31011KT P6SM SKC
     FM291700 27014KT P6SM SCT150
     FM300200 24008KT P6SM SKC=



000
FTUS45 KBYZ 291120
TAFMLS
TAF
KMLS 291120Z 2912/3012 29006KT P6SM SKC
     FM291700 29012G20KT P6SM FEW100
     FM300200 30008KT P6SM SKC
     FM300600 24006KT P6SM SKC=



000
FTUS45 KBYZ 291120
TAFMLS
TAF
KMLS 291120Z 2912/3012 29006KT P6SM SKC
     FM291700 29012G20KT P6SM FEW100
     FM300200 30008KT P6SM SKC
     FM300600 24006KT P6SM SKC=



000
FTUS45 KBYZ 291120
TAFSHR
TAF
KSHR 291120Z 2912/3012 25009KT P6SM SKC
     FM291700 33006KT P6SM SCT150
     FM300200 VRB03KT P6SM SKC=



000
FTUS45 KBYZ 291120
TAFMLS
TAF
KMLS 291120Z 2912/3012 29006KT P6SM SKC
     FM291700 29012G20KT P6SM FEW100
     FM300200 30008KT P6SM SKC
     FM300600 24006KT P6SM SKC=



000
FTUS45 KBYZ 291120
TAFSHR
TAF
KSHR 291120Z 2912/3012 25009KT P6SM SKC
     FM291700 33006KT P6SM SCT150
     FM300200 VRB03KT P6SM SKC=



000
FTUS45 KBYZ 291120
TAFSHR
TAF
KSHR 291120Z 2912/3012 25009KT P6SM SKC
     FM291700 33006KT P6SM SCT150
     FM300200 VRB03KT P6SM SKC=



000
FTUS45 KBYZ 291120
TAFLVM
TAF
KLVM 291120Z 2912/3012 31011KT P6SM SKC
     FM291700 27014KT P6SM SCT150
     FM300200 24008KT P6SM SKC=



000
FTUS45 KBYZ 291120
TAFBIL
TAF
KBIL 291120Z 2912/3012 24011KT P6SM FEW120
     FM292100 32011KT P6SM SKC
     FM300400 25008KT P6SM SKC=



000
FTUS45 KBYZ 291120
TAFBIL
TAF
KBIL 291120Z 2912/3012 24011KT P6SM FEW120
     FM292100 32011KT P6SM SKC
     FM300400 25008KT P6SM SKC=



000
FTUS45 KBYZ 291120
TAFBIL
TAF
KBIL 291120Z 2912/3012 24011KT P6SM FEW120
     FM292100 32011KT P6SM SKC
     FM300400 25008KT P6SM SKC=



000
FTUS45 KBYZ 291120
TAFSHR
TAF
KSHR 291120Z 2912/3012 25009KT P6SM SKC
     FM291700 33006KT P6SM SCT150
     FM300200 VRB03KT P6SM SKC=



    US Dept of Commerce
    National Oceanic and Atmospheric Administration
    National Weather Service
    1325 East West Highway
    Silver Spring, MD 20910
    Page Author: NWS Internet Services Team
Disclaimer
Information Quality
Credits
Glossary
Privacy Policy
Freedom of Information Act (FOIA)
About Us
Career Opportunities